sensor_id;sensor_type;location;lat;lon;timestamp;pressure;altitude;pressure_sealevel;temperature;humidity
41862;BME280;27537;57.134;-2.136;2023-05-19T00:01:12;101898.63;;;16.23;100.00
41862;BME280;27537;57.134;-2.136;2023-05-19T00:03:53;101912.22;;;16.13;100.00
41862;BME280;27537;57.134;-2.136;2023-05-19T00:06:23;101910.25;;;16.19;100.00
41862;BME280;27537;57.134;-2.136;2023-05-19T00:08:57;101891.31;;;15.87;100.00
41862;BME280;27537;57.134;-2.136;2023-05-19T00:11:25;101908.03;;;15.87;100.00
41862;BME280;27537;57.134;-2.136;2023-05-19T00:13:53;101900.31;;;16.03;100.00
41862;BME280;27537;57.134;-2.136;2023-05-19T00:16:21;101896.16;;;15.98;100.00
41862;BME280;27537;57.134;-2.136;2023-05-19T00:18:49;101883.47;;;15.85;100.00
41862;BME280;27537;57.134;-2.136;2023-05-19T00:21:16;101886.16;;;15.84;100.00
41862;BME280;27537;57.134;-2.136;2023-05-19T00:23:42;101885.63;;;15.74;100.00
41862;BME280;27537;57.134;-2.136;2023-05-19T00:26:10;101891.31;;;15.65;100.00
41862;BME280;27537;57.134;-2.136;2023-05-19T00:28:37;101891.47;;;15.38;100.00
41862;BME280;27537;57.134;-2.136;2023-05-19T00:31:04;101888.00;;;15.37;100.00
41862;BME280;27537;57.134;-2.136;2023-05-19T00:33:31;101894.44;;;15.30;100.00
41862;BME280;27537;57.134;-2.136;2023-05-19T00:36:02;101895.41;;;15.28;100.00
41862;BME280;27537;57.134;-2.136;2023-05-19T00:38:34;101904.53;;;15.19;100.00
41862;BME280;27537;57.134;-2.136;2023-05-19T00:41:03;101906.41;;;15.15;100.00
41862;BME280;27537;57.134;-2.136;2023-05-19T00:43:30;101900.53;;;15.09;100.00
41862;BME280;27537;57.134;-2.136;2023-05-19T00:45:57;101898.06;;;15.04;100.00
41862;BME280;27537;57.134;-2.136;2023-05-19T00:48:24;101902.19;;;15.11;100.00
41862;BME280;27537;57.134;-2.136;2023-05-19T00:50:55;101901.34;;;15.11;100.00
41862;BME280;27537;57.134;-2.136;2023-05-19T00:53:28;101893.47;;;15.09;100.00
41862;BME280;27537;57.134;-2.136;2023-05-19T00:55:56;101898.75;;;15.09;100.00
41862;BME280;27537;57.134;-2.136;2023-05-19T00:58:24;101899.59;;;15.10;100.00
41862;BME280;27537;57.134;-2.136;2023-05-19T01:00:58;101898.88;;;15.06;100.00
41862;BME280;27537;57.134;-2.136;2023-05-19T01:03:34;101883.34;;;14.98;100.00
41862;BME280;27537;57.134;-2.136;2023-05-19T01:06:03;101887.69;;;14.99;100.00
41862;BME280;27537;57.134;-2.136;2023-05-19T01:08:36;101896.28;;;15.05;100.00
41862;BME280;27537;57.134;-2.136;2023-05-19T01:11:05;101911.09;;;15.09;100.00
41862;BME280;27537;57.134;-2.136;2023-05-19T01:13:33;101912.63;;;15.14;100.00
41862;BME280;27537;57.134;-2.136;2023-05-19T01:18:45;101916.38;;;15.09;100.00
41862;BME280;27537;57.134;-2.136;2023-05-19T01:32:40;101917.88;;;14.91;100.00
41862;BME280;27537;57.134;-2.136;2023-05-19T01:35:08;101922.84;;;15.00;100.00
41862;BME280;27537;57.134;-2.136;2023-05-19T01:37:37;101912.97;;;14.81;100.00
41862;BME280;27537;57.134;-2.136;2023-05-19T01:40:06;101935.97;;;15.02;100.00
41862;BME280;27537;57.134;-2.136;2023-05-19T01:42:33;101919.50;;;14.95;100.00
41862;BME280;27537;57.134;-2.136;2023-05-19T01:45:04;101918.81;;;14.90;100.00
41862;BME280;27537;57.134;-2.136;2023-05-19T01:47:34;101926.88;;;14.85;100.00
41862;BME280;27537;57.134;-2.136;2023-05-19T01:50:04;101915.88;;;14.74;100.00
41862;BME280;27537;57.134;-2.136;2023-05-19T01:52:31;101907.34;;;14.67;100.00
41862;BME280;27537;57.134;-2.136;2023-05-19T01:54:58;101912.50;;;14.70;100.00
41862;BME280;27537;57.134;-2.136;2023-05-19T02:10:57;101945.00;;;14.19;100.00
41862;BME280;27537;57.134;-2.136;2023-05-19T02:13:30;101933.84;;;14.11;100.00
41862;BME280;27537;57.134;-2.136;2023-05-19T02:16:03;101934.63;;;14.13;100.00
41862;BME280;27537;57.134;-2.136;2023-05-19T02:18:33;101928.47;;;14.14;100.00
41862;BME280;27537;57.134;-2.136;2023-05-19T02:21:01;101946.00;;;14.15;100.00
41862;BME280;27537;57.134;-2.136;2023-05-19T02:23:28;101946.25;;;14.07;100.00
41862;BME280;27537;57.134;-2.136;2023-05-19T02:25:55;101937.41;;;14.10;100.00
41862;BME280;27537;57.134;-2.136;2023-05-19T02:28:21;101945.44;;;14.05;100.00
41862;BME280;27537;57.134;-2.136;2023-05-19T02:30:48;101942.44;;;13.89;100.00
41862;BME280;27537;57.134;-2.136;2023-05-19T02:33:15;101952.59;;;14.01;100.00
41862;BME280;27537;57.134;-2.136;2023-05-19T02:35:44;101945.50;;;14.03;100.00
41862;BME280;27537;57.134;-2.136;2023-05-19T02:38:11;101939.50;;;13.98;100.00
41862;BME280;27537;57.134;-2.136;2023-05-19T02:40:38;101938.19;;;13.85;100.00
41862;BME280;27537;57.134;-2.136;2023-05-19T02:43:04;101942.13;;;13.72;100.00
41862;BME280;27537;57.134;-2.136;2023-05-19T02:45:31;101944.75;;;13.72;100.00
41862;BME280;27537;57.134;-2.136;2023-05-19T02:47:58;101945.44;;;13.78;100.00
41862;BME280;27537;57.134;-2.136;2023-05-19T02:50:25;101953.31;;;13.78;100.00
41862;BME280;27537;57.134;-2.136;2023-05-19T02:52:52;101950.69;;;13.78;100.00
41862;BME280;27537;57.134;-2.136;2023-05-19T02:55:19;101961.94;;;13.83;100.00
41862;BME280;27537;57.134;-2.136;2023-05-19T02:57:46;101955.75;;;13.84;100.00
41862;BME280;27537;57.134;-2.136;2023-05-19T03:00:16;101965.03;;;13.96;100.00
41862;BME280;27537;57.134;-2.136;2023-05-19T03:02:44;101943.28;;;13.90;100.00
41862;BME280;27537;57.134;-2.136;2023-05-19T03:05:11;101954.81;;;13.87;100.00
41862;BME280;27537;57.134;-2.136;2023-05-19T03:07:39;101951.06;;;13.94;100.00
41862;BME280;27537;57.134;-2.136;2023-05-19T03:10:07;101956.41;;;13.91;100.00
41862;BME280;27537;57.134;-2.136;2023-05-19T03:12:34;101960.25;;;13.81;100.00
41862;BME280;27537;57.134;-2.136;2023-05-19T03:15:00;101940.97;;;13.52;100.00
41862;BME280;27537;57.134;-2.136;2023-05-19T03:17:27;101949.34;;;13.65;100.00
41862;BME280;27537;57.134;-2.136;2023-05-19T03:19:59;101953.06;;;13.58;100.00
41862;BME280;27537;57.134;-2.136;2023-05-19T03:22:27;101948.88;;;13.52;100.00
41862;BME280;27537;57.134;-2.136;2023-05-19T03:24:53;101951.28;;;13.60;100.00
41862;BME280;27537;57.134;-2.136;2023-05-19T03:27:20;101955.44;;;13.67;100.00
41862;BME280;27537;57.134;-2.136;2023-05-19T03:29:47;101954.09;;;13.54;100.00
41862;BME280;27537;57.134;-2.136;2023-05-19T03:32:14;101949.59;;;13.57;100.00
41862;BME280;27537;57.134;-2.136;2023-05-19T03:34:41;101915.28;;;13.32;100.00
41862;BME280;27537;57.134;-2.136;2023-05-19T03:37:07;101946.94;;;13.57;100.00
41862;BME280;27537;57.134;-2.136;2023-05-19T03:39:36;101951.00;;;13.69;100.00
41862;BME280;27537;57.134;-2.136;2023-05-19T03:42:03;101952.72;;;13.68;100.00
41862;BME280;27537;57.134;-2.136;2023-05-19T03:44:29;101952.91;;;13.64;100.00
41862;BME280;27537;57.134;-2.136;2023-05-19T03:46:56;101939.91;;;13.58;100.00
41862;BME280;27537;57.134;-2.136;2023-05-19T03:49:23;101965.03;;;13.68;100.00
41862;BME280;27537;57.134;-2.136;2023-05-19T03:51:49;101968.47;;;13.70;100.00
41862;BME280;27537;57.134;-2.136;2023-05-19T03:54:16;101965.97;;;13.67;100.00
41862;BME280;27537;57.134;-2.136;2023-05-19T03:56:43;101932.13;;;13.55;100.00
41862;BME280;27537;57.134;-2.136;2023-05-19T03:59:10;101950.56;;;13.55;100.00
41862;BME280;27537;57.134;-2.136;2023-05-19T04:01:37;101963.47;;;13.62;100.00
41862;BME280;27537;57.134;-2.136;2023-05-19T04:04:04;101953.97;;;13.58;100.00
41862;BME280;27537;57.134;-2.136;2023-05-19T04:06:31;101961.88;;;13.57;100.00
41862;BME280;27537;57.134;-2.136;2023-05-19T04:09:01;101955.66;;;13.59;100.00
41862;BME280;27537;57.134;-2.136;2023-05-19T04:11:29;101962.63;;;13.62;100.00
41862;BME280;27537;57.134;-2.136;2023-05-19T04:13:56;101960.91;;;13.59;100.00
41862;BME280;27537;57.134;-2.136;2023-05-19T04:16:22;101958.94;;;13.67;100.00
41862;BME280;27537;57.134;-2.136;2023-05-19T04:18:49;101959.06;;;13.63;100.00
41862;BME280;27537;57.134;-2.136;2023-05-19T04:21:16;101969.09;;;13.50;100.00
41862;BME280;27537;57.134;-2.136;2023-05-19T04:23:43;101968.38;;;13.45;100.00
41862;BME280;27537;57.134;-2.136;2023-05-19T04:26:09;101971.22;;;13.39;100.00
41862;BME280;27537;57.134;-2.136;2023-05-19T04:28:37;101963.16;;;13.43;100.00
41862;BME280;27537;57.134;-2.136;2023-05-19T04:31:07;101965.69;;;13.46;100.00
41862;BME280;27537;57.134;-2.136;2023-05-19T04:33:41;101961.44;;;13.42;100.00
41862;BME280;27537;57.134;-2.136;2023-05-19T04:36:08;101969.19;;;13.47;100.00
41862;BME280;27537;57.134;-2.136;2023-05-19T04:38:36;101961.97;;;13.54;100.00
41862;BME280;27537;57.134;-2.136;2023-05-19T04:41:05;101979.50;;;13.55;100.00
41862;BME280;27537;57.134;-2.136;2023-05-19T04:43:36;101992.38;;;13.64;100.00
41862;BME280;27537;57.134;-2.136;2023-05-19T04:46:07;101975.78;;;13.62;100.00
41862;BME280;27537;57.134;-2.136;2023-05-19T04:48:39;101986.94;;;13.68;100.00
41862;BME280;27537;57.134;-2.136;2023-05-19T04:51:06;101993.69;;;13.77;100.00
41862;BME280;27537;57.134;-2.136;2023-05-19T04:53:33;101986.00;;;13.71;100.00
41862;BME280;27537;57.134;-2.136;2023-05-19T04:56:00;101994.69;;;13.75;100.00
41862;BME280;27537;57.134;-2.136;2023-05-19T04:58:27;101993.47;;;13.57;100.00
41862;BME280;27537;57.134;-2.136;2023-05-19T05:00:54;101997.28;;;13.46;100.00
41862;BME280;27537;57.134;-2.136;2023-05-19T05:03:21;101997.28;;;13.46;100.00
41862;BME280;27537;57.134;-2.136;2023-05-19T05:05:52;101980.63;;;13.46;100.00
41862;BME280;27537;57.134;-2.136;2023-05-19T05:08:18;101994.31;;;13.57;100.00
41862;BME280;27537;57.134;-2.136;2023-05-19T05:10:49;101991.38;;;13.68;100.00
41862;BME280;27537;57.134;-2.136;2023-05-19T05:13:19;101974.84;;;13.63;100.00
41862;BME280;27537;57.134;-2.136;2023-05-19T05:15:47;101996.22;;;13.82;100.00
41862;BME280;27537;57.134;-2.136;2023-05-19T05:18:16;101994.69;;;13.75;100.00
41862;BME280;27537;57.134;-2.136;2023-05-19T05:20:44;101995.56;;;13.74;100.00
41862;BME280;27537;57.134;-2.136;2023-05-19T05:23:12;101980.09;;;13.63;100.00
41862;BME280;27537;57.134;-2.136;2023-05-19T05:25:42;101990.09;;;13.81;100.00
41862;BME280;27537;57.134;-2.136;2023-05-19T05:28:09;102002.31;;;13.82;100.00
41862;BME280;27537;57.134;-2.136;2023-05-19T05:30:36;102000.84;;;13.74;100.00
41862;BME280;27537;57.134;-2.136;2023-05-19T05:33:03;102005.69;;;13.88;100.00
41862;BME280;27537;57.134;-2.136;2023-05-19T05:35:30;102006.53;;;13.88;100.00
41862;BME280;27537;57.134;-2.136;2023-05-19T05:37:57;101998.94;;;13.79;100.00
41862;BME280;27537;57.134;-2.136;2023-05-19T05:40:24;102004.91;;;13.84;100.00
41862;BME280;27537;57.134;-2.136;2023-05-19T05:42:51;102020.06;;;14.04;100.00
41862;BME280;27537;57.134;-2.136;2023-05-19T05:45:17;102019.00;;;14.11;100.00
41862;BME280;27537;57.134;-2.136;2023-05-19T05:47:44;102004.72;;;14.18;100.00
41862;BME280;27537;57.134;-2.136;2023-05-19T05:50:12;102003.34;;;14.07;100.00
41862;BME280;27537;57.134;-2.136;2023-05-19T05:52:40;102007.53;;;14.12;100.00
41862;BME280;27537;57.134;-2.136;2023-05-19T05:55:08;102017.34;;;14.07;100.00
41862;BME280;27537;57.134;-2.136;2023-05-19T05:57:35;102022.28;;;14.18;100.00
41862;BME280;27537;57.134;-2.136;2023-05-19T06:00:03;102005.00;;;14.09;100.00
41862;BME280;27537;57.134;-2.136;2023-05-19T06:02:35;102011.50;;;14.26;100.00
41862;BME280;27537;57.134;-2.136;2023-05-19T06:05:02;102012.22;;;14.31;100.00
41862;BME280;27537;57.134;-2.136;2023-05-19T06:07:29;102024.28;;;14.38;100.00
41862;BME280;27537;57.134;-2.136;2023-05-19T06:09:56;102024.69;;;14.26;100.00
41862;BME280;27537;57.134;-2.136;2023-05-19T06:12:23;102020.75;;;14.37;100.00
41862;BME280;27537;57.134;-2.136;2023-05-19T06:14:52;102011.59;;;14.49;100.00
41862;BME280;27537;57.134;-2.136;2023-05-19T06:17:18;102031.31;;;14.64;100.00
41862;BME280;27537;57.134;-2.136;2023-05-19T06:19:45;102027.19;;;14.55;100.00
41862;BME280;27537;57.134;-2.136;2023-05-19T06:22:12;102037.34;;;14.68;100.00
41862;BME280;27537;57.134;-2.136;2023-05-19T06:24:39;102024.50;;;14.84;100.00
41862;BME280;27537;57.134;-2.136;2023-05-19T06:27:05;102022.75;;;14.59;100.00
41862;BME280;27537;57.134;-2.136;2023-05-19T06:29:32;102004.41;;;14.54;100.00
41862;BME280;27537;57.134;-2.136;2023-05-19T06:31:59;102040.44;;;14.80;100.00
41862;BME280;27537;57.134;-2.136;2023-05-19T06:34:26;102039.78;;;14.74;100.00
41862;BME280;27537;57.134;-2.136;2023-05-19T06:36:52;102052.19;;;14.97;100.00
41862;BME280;27537;57.134;-2.136;2023-05-19T06:39:19;102053.56;;;15.07;100.00
41862;BME280;27537;57.134;-2.136;2023-05-19T06:41:46;102042.44;;;14.99;100.00
41862;BME280;27537;57.134;-2.136;2023-05-19T06:44:13;102026.22;;;14.85;100.00
41862;BME280;27537;57.134;-2.136;2023-05-19T06:46:39;102053.63;;;15.06;100.00
41862;BME280;27537;57.134;-2.136;2023-05-19T06:49:06;102049.81;;;15.14;100.00
41862;BME280;27537;57.134;-2.136;2023-05-19T06:51:33;102052.59;;;15.10;100.00
41862;BME280;27537;57.134;-2.136;2023-05-19T06:54:01;102060.81;;;15.26;100.00
41862;BME280;27537;57.134;-2.136;2023-05-19T06:56:27;102074.41;;;15.38;100.00
41862;BME280;27537;57.134;-2.136;2023-05-19T06:58:54;102066.69;;;15.34;100.00
41862;BME280;27537;57.134;-2.136;2023-05-19T07:01:21;102068.63;;;15.29;100.00
41862;BME280;27537;57.134;-2.136;2023-05-19T07:03:48;102072.47;;;15.44;100.00
41862;BME280;27537;57.134;-2.136;2023-05-19T07:06:15;102062.75;;;15.46;100.00
41862;BME280;27537;57.134;-2.136;2023-05-19T07:08:41;102078.69;;;15.43;100.00
41862;BME280;27537;57.134;-2.136;2023-05-19T07:11:08;102089.44;;;15.62;100.00
41862;BME280;27537;57.134;-2.136;2023-05-19T07:13:35;102075.19;;;15.66;100.00
41862;BME280;27537;57.134;-2.136;2023-05-19T07:16:02;102087.72;;;15.84;100.00
41862;BME280;27537;57.134;-2.136;2023-05-19T07:18:29;102084.81;;;15.92;100.00
41862;BME280;27537;57.134;-2.136;2023-05-19T07:20:58;102090.59;;;16.02;100.00
41862;BME280;27537;57.134;-2.136;2023-05-19T07:23:25;102100.34;;;16.00;100.00
41862;BME280;27537;57.134;-2.136;2023-05-19T07:25:55;102093.75;;;16.11;100.00
41862;BME280;27537;57.134;-2.136;2023-05-19T07:28:22;102107.97;;;16.07;100.00
41862;BME280;27537;57.134;-2.136;2023-05-19T07:30:49;102099.88;;;16.34;100.00
41862;BME280;27537;57.134;-2.136;2023-05-19T07:33:16;102111.00;;;16.42;100.00
41862;BME280;27537;57.134;-2.136;2023-05-19T07:35:43;102115.56;;;16.39;100.00
41862;BME280;27537;57.134;-2.136;2023-05-19T07:38:10;102115.06;;;16.51;100.00
41862;BME280;27537;57.134;-2.136;2023-05-19T07:40:37;102105.47;;;16.48;100.00
41862;BME280;27537;57.134;-2.136;2023-05-19T07:43:04;102105.63;;;16.22;100.00
41862;BME280;27537;57.134;-2.136;2023-05-19T07:45:31;102107.06;;;16.52;100.00
41862;BME280;27537;57.134;-2.136;2023-05-19T07:47:58;102107.81;;;16.77;100.00
41862;BME280;27537;57.134;-2.136;2023-05-19T07:50:24;102071.75;;;16.76;100.00
41862;BME280;27537;57.134;-2.136;2023-05-19T07:52:52;102103.19;;;17.04;100.00
41862;BME280;27537;57.134;-2.136;2023-05-19T07:55:19;102104.38;;;16.97;100.00
41862;BME280;27537;57.134;-2.136;2023-05-19T07:57:49;102090.41;;;17.14;100.00
41862;BME280;27537;57.134;-2.136;2023-05-19T08:00:16;102099.53;;;17.48;100.00
41862;BME280;27537;57.134;-2.136;2023-05-19T08:02:43;102089.13;;;17.43;100.00
41862;BME280;27537;57.134;-2.136;2023-05-19T08:05:11;102093.41;;;17.45;100.00
41862;BME280;27537;57.134;-2.136;2023-05-19T08:07:38;102097.56;;;17.32;100.00
41862;BME280;27537;57.134;-2.136;2023-05-19T08:10:05;102105.19;;;17.59;100.00
41862;BME280;27537;57.134;-2.136;2023-05-19T08:12:32;102085.88;;;17.95;100.00
41862;BME280;27537;57.134;-2.136;2023-05-19T08:14:59;102083.25;;;17.95;100.00
41862;BME280;27537;57.134;-2.136;2023-05-19T08:17:27;102097.31;;;18.33;100.00
41862;BME280;27537;57.134;-2.136;2023-05-19T08:19:54;102098.00;;;19.08;100.00
41862;BME280;27537;57.134;-2.136;2023-05-19T08:22:20;102101.81;;;19.20;100.00
41862;BME280;27537;57.134;-2.136;2023-05-19T08:24:47;102094.84;;;19.35;100.00
41862;BME280;27537;57.134;-2.136;2023-05-19T08:27:15;102107.59;;;19.28;100.00
41862;BME280;27537;57.134;-2.136;2023-05-19T08:29:42;102110.25;;;19.28;100.00
41862;BME280;27537;57.134;-2.136;2023-05-19T08:32:09;102103.84;;;19.66;100.00
41862;BME280;27537;57.134;-2.136;2023-05-19T08:34:38;102103.00;;;19.81;99.43
41862;BME280;27537;57.134;-2.136;2023-05-19T08:37:05;102103.16;;;18.94;96.79
41862;BME280;27537;57.134;-2.136;2023-05-19T08:39:33;102107.16;;;18.85;100.00
41862;BME280;27537;57.134;-2.136;2023-05-19T08:42:00;102100.78;;;18.89;96.78
41862;BME280;27537;57.134;-2.136;2023-05-19T08:44:28;102096.03;;;19.63;99.03
41862;BME280;27537;57.134;-2.136;2023-05-19T08:46:59;102095.22;;;20.26;96.57
41862;BME280;27537;57.134;-2.136;2023-05-19T08:49:31;102096.16;;;20.09;80.92
41862;BME280;27537;57.134;-2.136;2023-05-19T08:54:32;102088.69;;;19.34;92.82
41862;BME280;27537;57.134;-2.136;2023-05-19T08:57:02;102098.75;;;19.28;89.72
41862;BME280;27537;57.134;-2.136;2023-05-19T08:59:31;102096.44;;;19.22;89.88
41862;BME280;27537;57.134;-2.136;2023-05-19T09:01:58;102088.16;;;19.10;93.51
41862;BME280;27537;57.134;-2.136;2023-05-19T09:04:25;102097.22;;;19.06;87.84
41862;BME280;27537;57.134;-2.136;2023-05-19T09:06:55;102097.06;;;19.09;83.08
41862;BME280;27537;57.134;-2.136;2023-05-19T09:09:22;102098.56;;;19.82;82.44
41862;BME280;27537;57.134;-2.136;2023-05-19T09:11:49;102097.13;;;19.92;82.39
41862;BME280;27537;57.134;-2.136;2023-05-19T09:14:15;102100.56;;;19.94;80.71
41862;BME280;27537;57.134;-2.136;2023-05-19T09:16:44;102099.88;;;20.06;79.89
41862;BME280;27537;57.134;-2.136;2023-05-19T09:19:13;102093.44;;;19.61;85.65
41862;BME280;27537;57.134;-2.136;2023-05-19T09:21:41;102109.31;;;19.63;80.45
41862;BME280;27537;57.134;-2.136;2023-05-19T09:24:10;102089.44;;;19.37;84.59
41862;BME280;27537;57.134;-2.136;2023-05-19T09:26:40;102111.34;;;19.91;84.38
41862;BME280;27537;57.134;-2.136;2023-05-19T09:29:14;102112.34;;;19.72;79.42
41862;BME280;27537;57.134;-2.136;2023-05-19T09:31:49;102115.72;;;19.92;79.23
41862;BME280;27537;57.134;-2.136;2023-05-19T09:34:17;102133.38;;;20.09;79.71
41862;BME280;27537;57.134;-2.136;2023-05-19T09:36:46;102133.66;;;19.88;77.43
41862;BME280;27537;57.134;-2.136;2023-05-19T09:39:15;102124.28;;;19.97;74.47
41862;BME280;27537;57.134;-2.136;2023-05-19T09:41:43;102135.78;;;19.98;78.81
41862;BME280;27537;57.134;-2.136;2023-05-19T09:46:53;102145.19;;;18.86;100.00
41862;BME280;27537;57.134;-2.136;2023-05-19T09:49:27;102136.78;;;18.76;100.00
41862;BME280;27537;57.134;-2.136;2023-05-19T09:51:58;102142.41;;;18.70;100.00
41862;BME280;27537;57.134;-2.136;2023-05-19T09:54:25;102126.13;;;18.58;100.00
41862;BME280;27537;57.134;-2.136;2023-05-19T09:57:02;102154.78;;;18.33;100.00
41862;BME280;27537;57.134;-2.136;2023-05-19T09:59:29;102136.03;;;18.18;100.00
41862;BME280;27537;57.134;-2.136;2023-05-19T10:01:59;102142.84;;;18.24;100.00
41862;BME280;27537;57.134;-2.136;2023-05-19T10:04:28;102152.44;;;17.68;100.00
41862;BME280;27537;57.134;-2.136;2023-05-19T10:06:56;102146.72;;;17.77;100.00
41862;BME280;27537;57.134;-2.136;2023-05-19T10:09:28;102164.38;;;17.58;100.00
41862;BME280;27537;57.134;-2.136;2023-05-19T10:11:57;102158.09;;;17.60;100.00
41862;BME280;27537;57.134;-2.136;2023-05-19T10:14:24;102163.06;;;17.48;100.00
41862;BME280;27537;57.134;-2.136;2023-05-19T10:16:53;102163.22;;;17.63;100.00
41862;BME280;27537;57.134;-2.136;2023-05-19T10:19:22;102154.22;;;17.68;100.00
41862;BME280;27537;57.134;-2.136;2023-05-19T10:21:50;102156.59;;;17.74;100.00
41862;BME280;27537;57.134;-2.136;2023-05-19T10:24:18;102161.53;;;18.21;100.00
41862;BME280;27537;57.134;-2.136;2023-05-19T10:27:07;102150.03;;;18.39;100.00
41862;BME280;27537;57.134;-2.136;2023-05-19T10:29:38;102161.25;;;18.64;100.00
41862;BME280;27537;57.134;-2.136;2023-05-19T10:32:11;102173.03;;;18.58;100.00
41862;BME280;27537;57.134;-2.136;2023-05-19T10:37:40;102166.94;;;19.10;100.00
41862;BME280;27537;57.134;-2.136;2023-05-19T10:40:32;102173.28;;;18.90;100.00
41862;BME280;27537;57.134;-2.136;2023-05-19T10:43:17;102175.94;;;19.07;100.00
41862;BME280;27537;57.134;-2.136;2023-05-19T10:45:49;102174.00;;;19.11;100.00
41862;BME280;27537;57.134;-2.136;2023-05-19T10:48:19;102185.22;;;18.43;100.00
41862;BME280;27537;57.134;-2.136;2023-05-19T10:50:47;102189.31;;;18.50;100.00
41862;BME280;27537;57.134;-2.136;2023-05-19T10:53:15;102181.69;;;18.62;100.00
41862;BME280;27537;57.134;-2.136;2023-05-19T10:55:51;102160.94;;;17.95;100.00
41862;BME280;27537;57.134;-2.136;2023-05-19T11:01:15;102179.88;;;18.26;100.00
41862;BME280;27537;57.134;-2.136;2023-05-19T11:03:53;102160.75;;;17.79;100.00
41862;BME280;27537;57.134;-2.136;2023-05-19T11:06:27;102186.22;;;17.63;100.00
41862;BME280;27537;57.134;-2.136;2023-05-19T11:08:59;102186.41;;;18.18;100.00
41862;BME280;27537;57.134;-2.136;2023-05-19T11:14:17;102178.50;;;17.58;100.00
41862;BME280;27537;57.134;-2.136;2023-05-19T11:16:49;102180.84;;;18.04;100.00
41862;BME280;27537;57.134;-2.136;2023-05-19T11:21:56;102172.56;;;18.67;100.00
41862;BME280;27537;57.134;-2.136;2023-05-19T11:27:33;102179.59;;;19.22;100.00
41862;BME280;27537;57.134;-2.136;2023-05-19T11:30:09;102162.81;;;19.04;100.00
41862;BME280;27537;57.134;-2.136;2023-05-19T11:32:49;102169.84;;;18.88;100.00
41862;BME280;27537;57.134;-2.136;2023-05-19T11:35:18;102175.78;;;18.93;100.00
41862;BME280;27537;57.134;-2.136;2023-05-19T11:37:49;102176.22;;;18.84;100.00
41862;BME280;27537;57.134;-2.136;2023-05-19T11:40:22;102176.72;;;18.73;100.00
41862;BME280;27537;57.134;-2.136;2023-05-19T11:42:55;102180.09;;;18.40;100.00
41862;BME280;27537;57.134;-2.136;2023-05-19T11:45:32;102175.38;;;19.18;100.00
41862;BME280;27537;57.134;-2.136;2023-05-19T11:48:01;102174.13;;;18.90;100.00
41862;BME280;27537;57.134;-2.136;2023-05-19T11:50:32;102169.66;;;19.43;100.00
41862;BME280;27537;57.134;-2.136;2023-05-19T11:53:05;102174.06;;;19.78;100.00
41862;BME280;27537;57.134;-2.136;2023-05-19T11:55:41;102177.63;;;19.94;100.00
41862;BME280;27537;57.134;-2.136;2023-05-19T11:58:16;102175.50;;;19.67;99.60
41862;BME280;27537;57.134;-2.136;2023-05-19T12:00:48;102185.38;;;19.48;94.91
41862;BME280;27537;57.134;-2.136;2023-05-19T12:03:30;102183.34;;;19.18;100.00
41862;BME280;27537;57.134;-2.136;2023-05-19T12:05:58;102172.97;;;19.31;100.00
41862;BME280;27537;57.134;-2.136;2023-05-19T12:08:26;102185.44;;;18.94;100.00
41862;BME280;27537;57.134;-2.136;2023-05-19T12:10:54;102189.75;;;19.14;99.70
41862;BME280;27537;57.134;-2.136;2023-05-19T12:13:29;102190.97;;;19.07;100.00
41862;BME280;27537;57.134;-2.136;2023-05-19T12:15:59;102174.00;;;19.62;94.85
41862;BME280;27537;57.134;-2.136;2023-05-19T12:18:29;102189.38;;;19.22;96.30
41862;BME280;27537;57.134;-2.136;2023-05-19T12:21:02;102189.09;;;19.44;93.15
41862;BME280;27537;57.134;-2.136;2023-05-19T12:23:35;102195.44;;;19.06;95.40
41862;BME280;27537;57.134;-2.136;2023-05-19T12:26:04;102188.72;;;19.51;93.99
41862;BME280;27537;57.134;-2.136;2023-05-19T12:28:31;102196.72;;;19.16;94.30
41862;BME280;27537;57.134;-2.136;2023-05-19T12:30:58;102184.34;;;18.98;94.76
41862;BME280;27537;57.134;-2.136;2023-05-19T12:33:26;102207.38;;;18.97;97.46
41862;BME280;27537;57.134;-2.136;2023-05-19T12:35:53;102201.78;;;19.21;96.66
41862;BME280;27537;57.134;-2.136;2023-05-19T12:38:21;102206.38;;;19.52;93.93
41862;BME280;27537;57.134;-2.136;2023-05-19T12:40:49;102193.13;;;19.18;93.82
41862;BME280;27537;57.134;-2.136;2023-05-19T12:43:24;102199.41;;;19.67;88.93
41862;BME280;27537;57.134;-2.136;2023-05-19T12:45:51;102200.75;;;19.06;94.17
41862;BME280;27537;57.134;-2.136;2023-05-19T12:48:21;102212.72;;;19.15;89.29
41862;BME280;27537;57.134;-2.136;2023-05-19T12:50:51;102209.78;;;18.85;94.20
41862;BME280;27537;57.134;-2.136;2023-05-19T12:53:21;102212.78;;;19.13;94.25
41862;BME280;27537;57.134;-2.136;2023-05-19T12:55:56;102214.25;;;19.54;91.67
41862;BME280;27537;57.134;-2.136;2023-05-19T12:58:23;102215.13;;;19.20;97.58
41862;BME280;27537;57.134;-2.136;2023-05-19T13:00:56;102220.47;;;19.37;94.54
41862;BME280;27537;57.134;-2.136;2023-05-19T13:03:24;102209.16;;;19.67;91.17
41862;BME280;27537;57.134;-2.136;2023-05-19T13:05:51;102218.38;;;19.60;91.73
41862;BME280;27537;57.134;-2.136;2023-05-19T13:08:19;102221.53;;;19.15;91.95
41862;BME280;27537;57.134;-2.136;2023-05-19T13:10:48;102219.03;;;19.47;92.49
41862;BME280;27537;57.134;-2.136;2023-05-19T13:13:15;102209.91;;;19.53;92.18
41862;BME280;27537;57.134;-2.136;2023-05-19T13:15:44;102214.75;;;19.27;91.97
41862;BME280;27537;57.134;-2.136;2023-05-19T13:18:12;102225.09;;;19.49;95.16
41862;BME280;27537;57.134;-2.136;2023-05-19T13:20:40;102221.03;;;19.60;90.47
41862;BME280;27537;57.134;-2.136;2023-05-19T13:23:12;102216.28;;;19.31;93.16
41862;BME280;27537;57.134;-2.136;2023-05-19T13:25:40;102214.31;;;19.70;89.77
41862;BME280;27537;57.134;-2.136;2023-05-19T13:28:08;102226.44;;;19.58;87.85